RYR1FD EGNM-EIDW
Flight info
| Callsign | RYR1FD |
|---|---|
| Flight time | N/A |
| Altitude | 28000 |
| Route | POL Y70 KOLID UL70 GUNTU Z196 LELDO M145 BAGSO BAGSO4L |
| Aircraft | B738/M-SDE2E3FGHIRWXY/LB1 |
Departure
| Time | 2026-05-06 16:45 |
|---|---|
| Airport | Leeds Bradford Airport (EGNM) |
Arrival
| Time | N/A |
|---|---|
| Airport | Dublin Airport (EIDW) |
| Time | Latitude | Longitude | Altitude | Speed | Heading |
|---|---|---|---|---|---|
| 2026-05-06 16:38 | 53.86813 | -1.65448 | 659 ft | 0 kts | 268° |
| 2026-05-06 16:39 | 53.86814 | -1.65464 | 660 ft | 4 kts | 271° |
| 2026-05-06 16:39 | 53.86814 | -1.65523 | 662 ft | 8 kts | 270° |
| 2026-05-06 16:39 | 53.86816 | -1.65640 | 667 ft | 14 kts | 271° |
| 2026-05-06 16:40 | 53.86815 | -1.65806 | 671 ft | 13 kts | 267° |
| 2026-05-06 16:40 | 53.86814 | -1.65956 | 674 ft | 12 kts | 271° |
| 2026-05-06 16:40 | 53.86827 | -1.66102 | 675 ft | 13 kts | 303° |
| 2026-05-06 16:40 | 53.86901 | -1.66219 | 674 ft | 14 kts | 318° |
| 2026-05-06 16:41 | 53.86961 | -1.66334 | 675 ft | 0 kts | 300° |
| 2026-05-06 16:42 | 53.86975 | -1.66375 | 675 ft | 10 kts | 300° |
| 2026-05-06 16:42 | 53.86997 | -1.66503 | 674 ft | 11 kts | 256° |
| 2026-05-06 16:43 | 53.86969 | -1.66620 | 674 ft | 11 kts | 288° |
| 2026-05-06 16:43 | 53.87035 | -1.66740 | 674 ft | 16 kts | 317° |
| 2026-05-06 16:43 | 53.87131 | -1.66887 | 674 ft | 21 kts | 317° |
| 2026-05-06 16:43 | 53.87267 | -1.66998 | 674 ft | 23 kts | 6° |
| 2026-05-06 16:44 | 53.87400 | -1.67088 | 675 ft | 21 kts | 264° |
| 2026-05-06 16:44 | 53.87296 | -1.67144 | 677 ft | 18 kts | 135° |
| 2026-05-06 16:44 | 53.87140 | -1.66901 | 674 ft | 62 kts | 137° |
| 2026-05-06 16:44 | 53.86612 | -1.66096 | 682 ft | 139 kts | 137° |
| 2026-05-06 16:45 | 53.85779 | -1.64806 | 1028 ft | 173 kts | 137° |
| 2026-05-06 16:45 | 53.84894 | -1.63481 | 2006 ft | 175 kts | 135° |
| 2026-05-06 16:45 | 53.83995 | -1.62123 | 2708 ft | 184 kts | 135° |
| 2026-05-06 16:45 | 53.83085 | -1.60975 | 3080 ft | 204 kts | 151° |
| 2026-05-06 16:46 | 53.81604 | -1.60668 | 3500 ft | 232 kts | 192° |
| 2026-05-06 16:46 | 53.80186 | -1.62182 | 3989 ft | 255 kts | 231° |
| 2026-05-06 16:46 | 53.79416 | -1.65031 | 4530 ft | 276 kts | 256° |
| 2026-05-06 16:46 | 53.79027 | -1.68299 | 5136 ft | 294 kts | 260° |
| 2026-05-06 16:47 | 53.78672 | -1.71826 | 5674 ft | 314 kts | 260° |
| 2026-05-06 16:47 | 53.78405 | -1.74398 | 5993 ft | 329 kts | 259° |